Scotchtown, New York
Current Conditions -  °F | °C
As of 8:54 AM on Friday 24 Oct 2014 (Local Time) from KMGJ Reporting Station
Overcast Overcast  
Wind Chill: 50°   Ceiling: 3100
Heat Index: 50°   Visibility: 10mi
Dew Point: 42°   Wind: 8mph
Humidity: 74%   Direction: 330°NNW
Pressure: 29.82"   Gusts: NA
Location:  41.45°N, 74.41°W
Report Text: KMGJ 241254Z AUTO 33007KT 10SM OVC031 10/06 A2982 RMK AO2 SLP098 T01000056 TSNO
Loading
Personal Weather Stations






























Interactive Weather Map
Tropical Storm Tracking
New forecast layout! Learn more

10-Day Weather Forecast

Advertisements
Track Severe Weather on mobile